createdAt,value
2018-01-01T00:00:34.648Z,976.79
2018-01-01T00:01:34.624Z,976.75
2018-01-01T00:02:34.603Z,976.81
2018-01-01T00:03:34.588Z,976.73
2018-01-01T00:04:34.559Z,976.80
2018-01-01T00:05:34.546Z,976.67
2018-01-01T00:06:34.517Z,976.66
2018-01-01T00:07:34.496Z,976.67
2018-01-01T00:08:34.475Z,976.68
2018-01-01T00:09:34.456Z,976.63
2018-01-01T00:10:34.435Z,976.64
2018-01-01T00:11:34.463Z,976.65
2018-01-01T00:12:34.393Z,976.62
2018-01-01T00:13:34.364Z,976.55
2018-01-01T00:14:34.343Z,976.53
2018-01-01T00:15:34.322Z,976.53
2018-01-01T00:16:34.307Z,976.54
2018-01-01T00:17:34.278Z,976.62
2018-01-01T00:18:34.257Z,976.58
2018-01-01T00:19:34.242Z,976.51
2018-01-01T00:20:34.214Z,976.57
2018-01-01T00:21:34.190Z,976.73
2018-01-01T00:22:34.176Z,976.56
2018-01-01T00:23:34.159Z,976.60
2018-01-01T00:24:34.127Z,976.61
2018-01-01T00:25:34.105Z,976.65
2018-01-01T00:26:34.089Z,976.79
2018-01-01T00:27:34.070Z,976.68
2018-01-01T00:28:34.041Z,976.80
2018-01-01T00:29:34.022Z,976.73
2018-01-01T00:30:33.997Z,976.58
2018-01-01T00:31:33.974Z,976.69
2018-01-01T00:32:33.953Z,976.67
2018-01-01T00:33:33.937Z,976.63
2018-01-01T00:34:33.915Z,976.66
2018-01-01T00:35:33.888Z,976.60
2018-01-01T00:36:33.869Z,976.59
2018-01-01T00:37:33.846Z,976.55
2018-01-01T00:38:33.823Z,976.57
2018-01-01T00:39:33.803Z,976.51
2018-01-01T00:40:33.785Z,976.48
2018-01-01T00:41:33.760Z,976.56
2018-01-01T00:42:33.743Z,976.53
2018-01-01T00:43:33.722Z,976.54
2018-01-01T00:44:33.703Z,976.57
2018-01-01T00:45:33.672Z,976.64
2018-01-01T00:46:33.655Z,976.54
2018-01-01T00:47:33.632Z,976.53
2018-01-01T00:48:33.617Z,976.60
2018-01-01T00:49:33.594Z,976.56
2018-01-01T00:50:33.598Z,976.53
2018-01-01T00:51:33.552Z,976.59
2018-01-01T00:52:33.543Z,976.68
2018-01-01T00:53:33.548Z,976.71
2018-01-01T00:54:33.474Z,976.64
2018-01-01T00:55:33.458Z,976.65
2018-01-01T00:56:33.435Z,976.66
2018-01-01T00:57:33.421Z,976.58
2018-01-01T00:58:33.397Z,976.62
2018-01-01T00:59:33.373Z,976.67
2018-01-01T01:00:33.349Z,976.66
2018-01-01T01:01:33.338Z,976.67
2018-01-01T01:02:33.304Z,976.74
2018-01-01T01:03:33.286Z,976.64
2018-01-01T01:04:33.263Z,976.62
2018-01-01T01:05:33.256Z,976.60
2018-01-01T01:06:33.247Z,976.56
2018-01-01T01:07:33.200Z,976.59
2018-01-01T01:08:33.191Z,976.55
2018-01-01T01:09:33.163Z,976.54
2018-01-01T01:10:33.135Z,976.61
2018-01-01T01:11:33.112Z,976.61
2018-01-01T01:12:33.093Z,976.61
2018-01-01T01:13:33.072Z,976.62
2018-01-01T01:14:33.051Z,976.62
2018-01-01T01:15:33.030Z,976.64
2018-01-01T01:16:33.009Z,976.66
2018-01-01T01:17:32.989Z,976.69
2018-01-01T01:18:32.961Z,976.74
2018-01-01T01:19:32.940Z,976.68
2018-01-01T01:20:32.918Z,976.72
2018-01-01T01:21:32.899Z,976.74
2018-01-01T01:22:32.877Z,976.77
2018-01-01T01:23:33.006Z,976.79
2018-01-01T01:24:32.830Z,976.80
2018-01-01T01:25:32.812Z,976.84
2018-01-01T01:26:32.788Z,976.76
2018-01-01T01:27:32.770Z,976.80
2018-01-01T01:28:32.746Z,976.89
2018-01-01T01:29:32.723Z,976.88
2018-01-01T01:30:32.707Z,976.80
2018-01-01T01:31:32.709Z,976.84
2018-01-01T01:32:32.709Z,976.94
2018-01-01T01:33:32.660Z,977.00
2018-01-01T01:34:32.658Z,976.92
2018-01-01T01:35:32.594Z,977.06
2018-01-01T01:36:32.574Z,977.06
2018-01-01T01:37:32.558Z,977.09
2018-01-01T01:38:32.535Z,977.10
2018-01-01T01:39:32.512Z,977.13
2018-01-01T01:40:32.492Z,977.18
2018-01-01T01:41:32.472Z,977.14
2018-01-01T01:42:32.447Z,977.04
2018-01-01T01:43:32.424Z,977.19
2018-01-01T01:44:32.403Z,977.11
2018-01-01T01:45:32.383Z,977.13
2018-01-01T01:46:32.364Z,977.19
2018-01-01T01:47:32.338Z,977.28
2018-01-01T01:48:32.322Z,977.21
2018-01-01T01:49:32.298Z,977.44
2018-01-01T01:50:32.276Z,977.32
2018-01-01T01:51:32.263Z,977.17
2018-01-01T01:52:32.232Z,977.43
2018-01-01T01:53:32.211Z,977.29
2018-01-01T01:54:32.191Z,977.40
2018-01-01T01:55:32.173Z,977.18
2018-01-01T01:56:32.151Z,977.18
2018-01-01T01:57:32.128Z,977.30
2018-01-01T01:58:32.106Z,977.41
2018-01-01T01:59:32.085Z,977.42
2018-01-01T02:00:32.065Z,977.30
2018-01-01T02:01:32.042Z,977.24
2018-01-01T02:02:32.025Z,977.23
2018-01-01T02:03:32.000Z,977.28
2018-01-01T02:04:31.980Z,977.26
2018-01-01T02:05:31.957Z,977.33
2018-01-01T02:06:31.942Z,977.34
2018-01-01T02:07:31.914Z,977.35
2018-01-01T02:08:31.892Z,977.30
2018-01-01T02:09:31.877Z,977.44
2018-01-01T02:10:31.854Z,977.34
2018-01-01T02:11:31.829Z,977.46
2018-01-01T02:12:31.808Z,977.40
2018-01-01T02:13:31.792Z,977.40
2018-01-01T02:14:31.762Z,977.55
2018-01-01T02:15:31.755Z,977.57
2018-01-01T02:16:31.759Z,977.50
2018-01-01T02:17:31.701Z,977.51
2018-01-01T02:18:31.676Z,977.51
2018-01-01T02:19:31.659Z,977.38
2018-01-01T02:20:31.638Z,977.63
2018-01-01T02:21:31.616Z,977.42
2018-01-01T02:22:31.593Z,977.45
2018-01-01T02:23:31.572Z,977.33
2018-01-01T02:24:31.553Z,977.37
2018-01-01T02:25:31.532Z,977.35
2018-01-01T02:26:31.509Z,977.39
2018-01-01T02:27:31.498Z,977.39
2018-01-01T02:28:31.467Z,977.26
2018-01-01T02:29:31.445Z,977.33
2018-01-01T02:30:31.423Z,977.31
2018-01-01T02:31:31.402Z,977.27
2018-01-01T02:32:31.386Z,977.20
2018-01-01T02:33:31.367Z,977.16
2018-01-01T02:34:31.337Z,977.21
2018-01-01T02:35:31.321Z,977.20
2018-01-01T02:36:31.295Z,977.23
2018-01-01T02:37:31.276Z,977.21
2018-01-01T02:38:31.256Z,977.22
2018-01-01T02:39:31.234Z,977.19
2018-01-01T02:40:31.216Z,977.11
2018-01-01T02:41:31.197Z,977.13
2018-01-01T02:42:31.171Z,977.07
2018-01-01T02:43:31.148Z,977.13
2018-01-01T02:44:31.127Z,977.15
2018-01-01T02:45:31.106Z,977.22
2018-01-01T02:46:45.663Z,977.25
2018-01-01T02:47:31.064Z,977.33
2018-01-01T02:48:31.048Z,977.29
2018-01-01T02:49:31.020Z,977.44
2018-01-01T02:50:30.999Z,977.46
2018-01-01T02:51:30.976Z,977.44
2018-01-01T02:52:30.955Z,977.56
2018-01-01T02:53:30.934Z,977.51
2018-01-01T02:54:30.914Z,977.47
2018-01-01T02:55:30.892Z,977.47
2018-01-01T02:56:30.887Z,977.52
2018-01-01T02:57:30.861Z,977.54
2018-01-01T02:58:30.871Z,977.60
2018-01-01T02:59:30.809Z,977.59
2018-01-01T03:00:30.789Z,977.50
2018-01-01T03:01:30.764Z,977.66
2018-01-01T03:02:30.751Z,977.51
2018-01-01T03:03:30.723Z,977.63
2018-01-01T03:04:30.703Z,977.54
2018-01-01T03:05:30.682Z,977.56
2018-01-01T03:06:30.657Z,977.59
2018-01-01T03:07:30.640Z,977.68
2018-01-01T03:08:30.621Z,977.61
2018-01-01T03:09:30.593Z,977.84
2018-01-01T03:10:30.573Z,977.67
2018-01-01T03:11:30.552Z,977.62
2018-01-01T03:12:30.533Z,977.62
2018-01-01T03:13:30.510Z,977.56
2018-01-01T03:14:30.490Z,977.62
2018-01-01T03:15:30.470Z,977.65
2018-01-01T03:16:30.449Z,977.59
2018-01-01T03:17:30.427Z,977.55
2018-01-01T03:18:30.403Z,977.55
2018-01-01T03:19:30.382Z,977.61
2018-01-01T03:20:30.361Z,977.65
2018-01-01T03:21:30.364Z,977.68
2018-01-01T03:22:30.319Z,977.69
2018-01-01T03:23:30.330Z,977.65
2018-01-01T03:24:30.283Z,977.58
2018-01-01T03:25:30.260Z,977.58
2018-01-01T03:26:30.240Z,977.54
2018-01-01T03:27:30.216Z,977.54
2018-01-01T03:28:30.195Z,977.52
2018-01-01T03:29:30.172Z,977.59
2018-01-01T03:30:30.160Z,977.59
2018-01-01T03:31:30.131Z,977.55
2018-01-01T03:32:30.113Z,977.59
2018-01-01T03:33:30.090Z,977.50
2018-01-01T03:34:30.067Z,977.53
2018-01-01T03:35:30.044Z,977.74
2018-01-01T03:36:30.027Z,977.65
2018-01-01T03:37:30.002Z,977.61
2018-01-01T03:38:29.983Z,977.60
2018-01-01T03:39:29.962Z,977.61
2018-01-01T03:40:29.967Z,977.67
2018-01-01T03:41:29.920Z,977.56
2018-01-01T03:42:29.897Z,977.73
2018-01-01T03:43:29.881Z,977.68
2018-01-01T03:44:29.853Z,977.56
2018-01-01T03:45:29.832Z,977.55
2018-01-01T03:46:29.811Z,977.63
2018-01-01T03:47:29.791Z,977.59
2018-01-01T03:48:29.775Z,977.58
2018-01-01T03:49:29.748Z,977.62
2018-01-01T03:50:29.730Z,977.64
2018-01-01T03:51:29.704Z,977.77
2018-01-01T03:52:29.683Z,977.56
2018-01-01T03:53:29.662Z,977.72
2018-01-01T03:54:29.638Z,977.75
2018-01-01T03:55:29.622Z,977.89
2018-01-01T03:56:29.601Z,977.80
2018-01-01T03:57:29.580Z,977.76
2018-01-01T03:58:29.557Z,977.62
2018-01-01T03:59:29.538Z,977.77
2018-01-01T04:00:29.516Z,977.85
2018-01-01T04:01:29.494Z,977.83
2018-01-01T04:02:29.483Z,977.87
2018-01-01T04:03:29.470Z,977.87
2018-01-01T04:04:29.429Z,977.83
2018-01-01T04:05:29.408Z,977.72
2018-01-01T04:06:29.389Z,977.76
2018-01-01T04:07:29.369Z,977.58
2018-01-01T04:08:29.347Z,977.78
2018-01-01T04:09:29.322Z,978.04
2018-01-01T04:10:29.306Z,977.81
2018-01-01T04:11:29.288Z,977.88
2018-01-01T04:12:29.263Z,977.83
2018-01-01T04:13:29.241Z,977.80
2018-01-01T04:14:29.215Z,977.91
2018-01-01T04:15:29.194Z,977.83
2018-01-01T04:16:29.168Z,977.89
2018-01-01T04:17:29.156Z,977.93
2018-01-01T04:18:29.129Z,977.92
2018-01-01T04:19:29.108Z,977.88
2018-01-01T04:20:29.089Z,977.86
2018-01-01T04:21:29.072Z,977.87
2018-01-01T04:22:29.085Z,977.87
2018-01-01T04:23:29.024Z,977.95
2018-01-01T04:24:29.007Z,977.94
2018-01-01T04:25:28.980Z,977.93
2018-01-01T04:26:28.980Z,977.91
2018-01-01T04:27:28.938Z,977.85
2018-01-01T04:28:28.921Z,978.03
2018-01-01T04:29:28.894Z,978.04
2018-01-01T04:30:28.871Z,977.99
2018-01-01T04:31:28.856Z,977.96
2018-01-01T04:32:28.831Z,978.04
2018-01-01T04:33:28.810Z,978.10
2018-01-01T04:34:28.790Z,977.99
2018-01-01T04:35:28.765Z,977.94
2018-01-01T04:36:28.745Z,977.94
2018-01-01T04:37:28.722Z,978.07
2018-01-01T04:38:28.700Z,978.06
2018-01-01T04:39:28.684Z,978.06
2018-01-01T04:40:28.658Z,978.04
2018-01-01T04:41:28.640Z,978.10
2018-01-01T04:42:28.623Z,978.05
2018-01-01T04:43:28.593Z,978.09
2018-01-01T04:44:28.576Z,978.17
2018-01-01T04:45:28.547Z,978.02
2018-01-01T04:46:28.531Z,978.21
2018-01-01T04:47:28.510Z,978.17
2018-01-01T04:48:28.491Z,978.15
2018-01-01T04:49:28.473Z,978.16
2018-01-01T04:50:28.445Z,978.25
2018-01-01T04:51:28.422Z,978.37
2018-01-01T04:52:28.401Z,978.25
2018-01-01T04:53:28.380Z,978.19
2018-01-01T04:54:28.362Z,978.27
2018-01-01T04:55:28.336Z,978.30
2018-01-01T04:56:28.316Z,978.31
2018-01-01T04:57:28.295Z,978.28
2018-01-01T04:58:28.273Z,978.30
2018-01-01T04:59:28.257Z,978.31
2018-01-01T05:00:28.227Z,978.32
2018-01-01T05:01:28.214Z,978.32
2018-01-01T05:02:28.195Z,978.27
2018-01-01T05:03:28.164Z,978.25
2018-01-01T05:04:28.179Z,978.21
2018-01-01T05:05:28.120Z,978.27
2018-01-01T05:06:28.102Z,978.39
2018-01-01T05:07:28.086Z,978.42
2018-01-01T05:08:28.065Z,978.32
2018-01-01T05:09:28.038Z,978.37
2018-01-01T05:10:28.015Z,978.40
2018-01-01T05:11:27.992Z,978.46
2018-01-01T05:12:27.971Z,978.37
2018-01-01T05:13:27.952Z,978.34
2018-01-01T05:14:27.933Z,978.33
2018-01-01T05:15:27.906Z,978.33
2018-01-01T05:16:27.887Z,978.31
2018-01-01T05:17:42.702Z,978.30
2018-01-01T05:18:27.841Z,978.53
2018-01-01T05:19:27.828Z,978.44
2018-01-01T05:20:27.799Z,978.61
2018-01-01T05:21:27.784Z,978.59
2018-01-01T05:22:27.756Z,978.58
2018-01-01T05:23:27.742Z,978.58
2018-01-01T05:24:27.722Z,978.66
2018-01-01T05:25:27.693Z,978.72
2018-01-01T05:26:27.687Z,978.61
2018-01-01T05:27:27.651Z,978.75
2018-01-01T05:28:27.631Z,978.57
2018-01-01T05:29:27.615Z,978.48
2018-01-01T05:30:27.584Z,978.63
2018-01-01T05:31:27.565Z,978.65
2018-01-01T05:32:27.541Z,978.62
2018-01-01T05:33:27.531Z,978.41
2018-01-01T05:34:27.496Z,978.53
2018-01-01T05:35:27.476Z,978.59
2018-01-01T05:36:27.464Z,978.76
2018-01-01T05:37:27.438Z,978.61
2018-01-01T05:38:27.416Z,978.48
2018-01-01T05:39:27.434Z,978.52
2018-01-01T05:40:27.375Z,978.57
2018-01-01T05:41:27.348Z,978.49
2018-01-01T05:42:27.327Z,978.53
2018-01-01T05:43:27.304Z,978.54
2018-01-01T05:44:27.296Z,978.72
2018-01-01T05:45:27.276Z,978.55
2018-01-01T05:46:27.271Z,978.53
2018-01-01T05:47:27.229Z,978.60
2018-01-01T05:48:27.195Z,978.71
2018-01-01T05:49:27.175Z,978.55
2018-01-01T05:50:27.150Z,978.62
2018-01-01T05:51:27.133Z,978.58
2018-01-01T05:52:27.108Z,978.57
2018-01-01T05:53:27.087Z,978.64
2018-01-01T05:54:27.067Z,978.66
2018-01-01T05:55:27.041Z,978.73
2018-01-01T05:56:27.021Z,978.64
2018-01-01T05:57:26.999Z,978.84
2018-01-01T05:58:26.976Z,978.78
2018-01-01T05:59:26.957Z,978.71
2018-01-01T06:00:26.934Z,978.78
2018-01-01T06:01:26.916Z,978.76
2018-01-01T06:02:26.894Z,978.81
2018-01-01T06:03:26.873Z,978.87
2018-01-01T06:04:26.850Z,978.84
2018-01-01T06:05:26.833Z,978.81
2018-01-01T06:06:26.804Z,978.89
2018-01-01T06:07:26.782Z,978.89
2018-01-01T06:08:26.762Z,978.94
2018-01-01T06:09:26.736Z,978.95
2018-01-01T06:10:26.726Z,978.99
2018-01-01T06:11:26.701Z,978.97
2018-01-01T06:12:26.676Z,979.07
2018-01-01T06:13:26.651Z,979.14
2018-01-01T06:14:26.633Z,979.09
2018-01-01T06:15:26.611Z,979.17
2018-01-01T06:16:26.590Z,979.10
2018-01-01T06:17:26.569Z,979.31
2018-01-01T06:18:26.552Z,979.21
2018-01-01T06:19:26.532Z,979.20
2018-01-01T06:20:26.498Z,979.20
2018-01-01T06:21:26.486Z,979.24
2018-01-01T06:22:26.456Z,979.47
2018-01-01T06:23:26.438Z,979.32
2018-01-01T06:24:26.412Z,979.46
2018-01-01T06:25:26.397Z,979.40
2018-01-01T06:26:26.370Z,979.30
2018-01-01T06:27:26.378Z,979.33
2018-01-01T06:28:26.377Z,979.29
2018-01-01T06:29:26.304Z,979.45
2018-01-01T06:30:26.282Z,979.32
2018-01-01T06:31:26.261Z,979.51
2018-01-01T06:32:26.242Z,979.44
2018-01-01T06:33:26.217Z,979.42
2018-01-01T06:34:26.194Z,979.49
2018-01-01T06:35:26.177Z,979.52
2018-01-01T06:36:26.152Z,979.73
2018-01-01T06:37:26.138Z,979.65
2018-01-01T06:38:26.110Z,979.61
2018-01-01T06:39:26.085Z,979.85
2018-01-01T06:40:26.064Z,979.66
2018-01-01T06:41:26.044Z,979.63
2018-01-01T06:42:26.021Z,979.83
2018-01-01T06:43:26.001Z,979.80
2018-01-01T06:44:25.984Z,979.75
2018-01-01T06:45:25.955Z,979.65
2018-01-01T06:46:25.934Z,979.76
2018-01-01T06:47:25.945Z,979.81
2018-01-01T06:50:00.498Z,980.03
2018-01-01T06:51:00.457Z,980.01
2018-01-01T06:52:54.634Z,980.01
2018-01-01T06:53:54.593Z,980.12
2018-01-01T06:55:47.956Z,980.11
2018-01-01T06:56:47.923Z,980.09
2018-01-01T06:58:43.793Z,980.22
2018-01-01T06:59:43.759Z,980.16
2018-01-01T07:01:37.125Z,980.33
2018-01-01T07:02:37.077Z,980.40
2018-01-01T07:04:30.469Z,980.26
2018-01-01T07:05:30.407Z,980.36
2018-01-01T07:07:26.291Z,980.33
2018-01-01T07:08:26.236Z,980.80
2018-01-01T07:10:19.598Z,980.34
2018-01-01T07:11:19.570Z,980.46
2018-01-01T07:13:12.931Z,980.43
2018-01-01T07:14:12.939Z,980.49
2018-01-01T07:16:06.237Z,980.31
2018-01-01T07:17:06.198Z,980.48
2018-01-01T07:18:59.591Z,980.43
2018-01-01T07:19:59.526Z,980.39
2018-01-01T07:21:52.884Z,980.36
2018-01-01T07:22:52.844Z,980.38
2018-01-01T07:24:46.213Z,980.35
2018-01-01T07:25:46.168Z,980.48
2018-01-01T07:27:39.549Z,980.87
2018-01-01T07:28:39.532Z,980.62
2018-01-01T07:30:32.843Z,980.46
2018-01-01T07:31:32.804Z,980.29
2018-01-01T07:33:27.029Z,980.55
2018-01-01T07:34:26.988Z,980.58
2018-01-01T07:36:20.360Z,980.62
2018-01-01T07:37:20.310Z,980.42
2018-01-01T07:39:16.179Z,980.57
2018-01-01T07:40:16.136Z,980.54
2018-01-01T07:42:09.499Z,980.52
2018-01-01T07:43:09.454Z,980.66
2018-01-01T07:45:02.837Z,980.60
2018-01-01T07:46:02.791Z,980.56
2018-01-01T07:47:56.159Z,980.66
2018-01-01T07:48:56.110Z,980.59
2018-01-01T07:50:51.987Z,980.57
2018-01-01T07:51:51.940Z,980.60
2018-01-01T07:53:45.298Z,980.71
2018-01-01T07:54:45.265Z,980.64
2018-01-01T07:56:38.626Z,980.73
2018-01-01T07:57:38.591Z,980.67
2018-01-01T07:59:31.956Z,980.69
2018-01-01T08:00:31.919Z,980.63
2018-01-01T08:02:25.292Z,980.72
2018-01-01T08:03:25.236Z,980.64
2018-01-01T08:05:18.610Z,980.59
2018-01-01T08:06:18.564Z,980.64
2018-01-01T08:08:11.916Z,980.70
2018-01-01T08:09:11.879Z,980.70
2018-01-01T08:11:06.121Z,980.65
2018-01-01T08:12:06.083Z,980.74
2018-01-01T08:13:59.448Z,980.79
2018-01-01T08:14:59.413Z,980.81
2018-01-01T08:17:03.648Z,980.91
2018-01-01T08:18:03.560Z,980.87
2018-01-01T08:19:56.931Z,980.93
2018-01-01T08:20:56.890Z,981.03
2018-01-01T08:22:50.271Z,981.09
2018-01-01T08:23:50.225Z,981.09
2018-01-01T08:25:43.693Z,981.12
2018-01-01T08:26:43.542Z,981.26
2018-01-01T08:28:36.939Z,981.22
2018-01-01T08:29:36.885Z,981.28
2018-01-01T08:31:30.473Z,981.30
2018-01-01T08:32:30.430Z,981.33
2018-01-01T08:34:23.803Z,981.33
2018-01-01T08:35:23.762Z,981.37
2018-01-01T08:37:17.139Z,981.37
2018-01-01T08:38:17.088Z,981.35
2018-01-01T08:40:12.976Z,981.45
2018-01-01T08:41:12.939Z,981.39
2018-01-01T08:43:06.293Z,981.40
2018-01-01T08:44:06.253Z,981.39
2018-01-01T08:46:02.126Z,981.48
2018-01-01T08:47:02.079Z,981.48
2018-01-01T08:48:55.436Z,981.46
2018-01-01T08:49:55.397Z,981.45
2018-01-01T08:51:48.756Z,981.51
2018-01-01T08:52:48.741Z,981.56
2018-01-01T08:54:44.632Z,981.46
2018-01-01T08:55:44.595Z,981.63
2018-01-01T08:57:37.996Z,981.52
2018-01-01T08:58:37.925Z,981.57
2018-01-01T09:00:31.589Z,981.57
2018-01-01T09:01:31.282Z,981.60
2018-01-01T09:03:24.640Z,981.55
2018-01-01T09:04:24.623Z,981.62
2018-01-01T09:06:17.968Z,981.60
2018-01-01T09:07:17.924Z,981.58
2018-01-01T09:09:14.681Z,981.65
2018-01-01T09:10:14.634Z,981.59
2018-01-01T09:12:10.511Z,981.62
2018-01-01T09:13:10.474Z,981.59
2018-01-01T09:15:03.883Z,981.61
2018-01-01T09:16:03.825Z,981.65
2018-01-01T09:17:57.183Z,981.72
2018-01-01T09:18:57.136Z,981.84
2018-01-01T09:20:50.517Z,981.82
2018-01-01T09:21:50.474Z,981.77
2018-01-01T09:23:46.408Z,981.75
2018-01-01T09:24:46.369Z,981.76
2018-01-01T09:26:39.751Z,981.77
2018-01-01T09:27:39.708Z,981.78
2018-01-01T09:29:33.067Z,981.81
2018-01-01T09:30:33.024Z,981.82
2018-01-01T09:32:26.476Z,981.79
2018-01-01T09:33:26.443Z,981.79
2018-01-01T09:35:22.322Z,981.77
2018-01-01T09:36:22.278Z,981.76
2018-01-01T09:38:15.622Z,981.73
2018-01-01T09:39:15.590Z,981.87
2018-01-01T09:41:08.972Z,981.70
2018-01-01T09:42:08.932Z,981.69
2018-01-01T09:44:02.318Z,981.63
2018-01-01T09:45:02.262Z,981.58
2018-01-01T09:46:55.631Z,981.60
2018-01-01T09:47:55.593Z,981.54
2018-01-01T09:49:49.792Z,981.49
2018-01-01T09:50:49.747Z,981.58
2018-01-01T09:52:43.120Z,981.68
2018-01-01T09:53:43.077Z,981.54
2018-01-01T09:55:38.936Z,981.55
2018-01-01T09:56:38.897Z,981.56
2018-01-01T09:58:32.260Z,981.47
2018-01-01T09:59:32.217Z,981.57
2018-01-01T10:01:25.586Z,981.65
2018-01-01T10:02:25.548Z,981.48
2018-01-01T10:04:21.424Z,981.47
2018-01-01T10:05:21.385Z,981.73
2018-01-01T10:07:17.235Z,981.52
2018-01-01T10:08:17.196Z,981.48
2018-01-01T10:10:10.557Z,981.52
2018-01-01T10:11:10.520Z,981.47
2018-01-01T10:13:03.885Z,981.57
2018-01-01T10:14:03.848Z,981.59
2018-01-01T10:15:59.717Z,981.48
2018-01-01T10:16:59.678Z,981.50
2018-01-01T10:18:53.050Z,981.53
2018-01-01T10:19:53.012Z,981.52
2018-01-01T10:21:48.885Z,981.57
2018-01-01T10:22:48.845Z,981.55
2018-01-01T10:24:42.300Z,981.67
2018-01-01T10:25:42.254Z,981.62
2018-01-01T10:27:35.628Z,981.61
2018-01-01T10:28:35.585Z,981.58
2018-01-01T10:30:31.456Z,981.68
2018-01-01T10:31:31.419Z,981.68
2018-01-01T10:33:24.812Z,981.50
2018-01-01T10:34:24.757Z,981.49
2018-01-01T10:36:18.152Z,981.64
2018-01-01T10:37:18.105Z,981.51
2018-01-01T10:39:11.470Z,981.59
2018-01-01T10:40:11.431Z,981.70
2018-01-01T10:42:04.804Z,981.76
2018-01-01T10:43:04.783Z,981.71
2018-01-01T10:45:00.638Z,981.63
2018-01-01T10:46:00.599Z,981.69
2018-01-01T10:47:53.956Z,981.75
2018-01-01T10:48:53.917Z,981.76
2018-01-01T10:50:49.798Z,981.74
2018-01-01T10:51:49.756Z,981.71
2018-01-01T10:53:43.130Z,981.84
2018-01-01T10:54:43.095Z,981.78
2018-01-01T10:56:37.254Z,981.77
2018-01-01T10:57:37.213Z,981.87
2018-01-01T10:59:33.091Z,981.69
2018-01-01T11:00:33.048Z,981.64
2018-01-01T11:02:26.433Z,981.74
2018-01-01T11:03:26.392Z,981.57
2018-01-01T11:05:19.753Z,981.71
2018-01-01T11:06:19.723Z,981.52
2018-01-01T11:08:15.587Z,981.60
2018-01-01T11:09:15.550Z,981.57
2018-01-01T11:11:11.416Z,981.46
2018-01-01T11:12:11.357Z,981.58
2018-01-01T11:14:06.594Z,981.58
2018-01-01T11:15:06.557Z,981.45
2018-01-01T11:16:59.916Z,981.36
2018-01-01T11:17:59.878Z,981.37
2018-01-01T11:19:55.736Z,981.27
2018-01-01T11:20:55.699Z,981.28
2018-01-01T11:22:49.061Z,981.30
2018-01-01T11:23:49.027Z,981.21
2018-01-01T11:25:42.395Z,981.30
2018-01-01T11:26:42.351Z,981.20
2018-01-01T11:28:35.746Z,981.13
2018-01-01T11:29:35.703Z,981.13
2018-01-01T11:31:29.128Z,981.07
2018-01-01T11:32:29.058Z,981.21
2018-01-01T11:34:24.930Z,981.13
2018-01-01T11:35:24.885Z,981.07
2018-01-01T11:37:20.975Z,981.03
2018-01-01T11:38:20.923Z,981.03
2018-01-01T11:40:16.799Z,981.02
2018-01-01T11:41:16.789Z,980.97
2018-01-01T11:42:16.751Z,981.12
2018-01-01T11:43:16.728Z,981.24
2018-01-01T11:44:16.699Z,980.93
2018-01-01T11:45:16.674Z,980.81
2018-01-01T11:46:16.657Z,980.96
2018-01-01T11:47:16.640Z,981.13
2018-01-01T11:48:16.625Z,980.99
2018-01-01T11:49:16.593Z,980.86
2018-01-01T11:50:16.583Z,980.91
2018-01-01T11:51:16.550Z,980.91
2018-01-01T11:52:16.525Z,980.95
2018-01-01T11:53:16.502Z,980.90
2018-01-01T11:54:16.489Z,980.88
2018-01-01T11:55:16.464Z,980.84
2018-01-01T11:56:16.443Z,980.81
2018-01-01T11:57:16.420Z,980.82
2018-01-01T11:58:16.399Z,980.88
2018-01-01T11:59:16.378Z,980.89
2018-01-01T12:00:16.357Z,980.95
2018-01-01T12:01:16.332Z,980.80
2018-01-01T12:02:16.320Z,980.82
2018-01-01T12:03:16.301Z,980.95
2018-01-01T12:04:16.277Z,980.95
2018-01-01T12:05:16.248Z,980.86
2018-01-01T12:06:16.246Z,981.03
2018-01-01T12:07:16.252Z,980.95
2018-01-01T12:08:16.229Z,980.94
2018-01-01T12:09:16.182Z,980.81
2018-01-01T12:10:16.145Z,980.87
2018-01-01T12:11:16.135Z,980.82
2018-01-01T12:12:19.568Z,980.76
2018-01-01T12:13:16.090Z,980.78
2018-01-01T12:14:16.065Z,980.98
2018-01-01T12:15:16.056Z,980.71
2018-01-01T12:16:16.023Z,980.77
2018-01-01T12:17:16.018Z,980.72
2018-01-01T12:18:15.981Z,980.69
2018-01-01T12:19:15.958Z,980.65
2018-01-01T12:20:15.942Z,980.73
2018-01-01T12:21:15.916Z,980.64
2018-01-01T12:22:15.902Z,980.77
2018-01-01T12:23:15.882Z,980.69
2018-01-01T12:24:15.857Z,980.57
2018-01-01T12:25:15.836Z,980.69
2018-01-01T12:26:15.815Z,980.72
2018-01-01T12:27:15.788Z,980.67
2018-01-01T12:28:15.785Z,980.77
2018-01-01T12:29:15.757Z,980.62
2018-01-01T12:30:15.729Z,980.70
2018-01-01T12:31:15.708Z,980.58
2018-01-01T12:32:15.694Z,980.59
2018-01-01T12:33:15.670Z,980.56
2018-01-01T12:34:15.653Z,980.60
2018-01-01T12:35:15.640Z,980.65
2018-01-01T12:36:15.601Z,980.56
2018-01-01T12:37:15.580Z,980.52
2018-01-01T12:38:15.562Z,980.51
2018-01-01T12:39:15.549Z,980.54
2018-01-01T12:40:22.360Z,980.52
2018-01-01T12:41:15.507Z,980.71
2018-01-01T12:42:15.476Z,980.69
2018-01-01T12:43:15.480Z,980.53
2018-01-01T12:44:15.439Z,980.48
2018-01-01T12:45:15.424Z,980.41
2018-01-01T12:46:15.405Z,980.68
2018-01-01T12:47:15.374Z,980.48
2018-01-01T12:48:15.380Z,980.70
2018-01-01T12:49:15.335Z,980.44
2018-01-01T12:50:15.327Z,980.68
2018-01-01T12:51:15.328Z,980.58
2018-01-01T12:52:15.273Z,980.49
2018-01-01T12:53:15.252Z,980.41
2018-01-01T12:54:15.236Z,980.39
2018-01-01T12:55:15.212Z,980.37
2018-01-01T12:56:15.187Z,980.48
2018-01-01T12:57:15.173Z,980.39
2018-01-01T12:58:15.155Z,980.42
2018-01-01T12:59:15.137Z,980.42
2018-01-01T13:00:15.132Z,980.25
2018-01-01T13:01:15.102Z,980.31
2018-01-01T13:02:15.063Z,980.35
2018-01-01T13:03:15.044Z,980.32
2018-01-01T13:04:15.029Z,980.40
2018-01-01T13:05:15.008Z,980.46
2018-01-01T13:06:15.026Z,980.32
2018-01-01T13:07:14.960Z,980.31
2018-01-01T13:08:14.945Z,980.29
2018-01-01T13:09:14.918Z,980.18
2018-01-01T13:10:14.899Z,980.27
2018-01-01T13:12:46.976Z,980.43
2018-01-01T13:13:46.937Z,980.26
2018-01-01T13:15:42.823Z,980.18
2018-01-01T13:16:42.785Z,980.07
2018-01-01T13:18:36.167Z,980.15
2018-01-01T13:19:36.125Z,979.99
2018-01-01T13:21:29.552Z,979.91
2018-01-01T13:22:29.461Z,979.90
2018-01-01T13:24:22.832Z,979.90
2018-01-01T13:25:22.793Z,979.94
2018-01-01T13:27:16.162Z,979.84
2018-01-01T13:28:16.115Z,979.78
2018-01-01T13:30:09.486Z,979.91
2018-01-01T13:31:09.443Z,979.69
2018-01-01T13:33:02.864Z,979.74
2018-01-01T13:34:02.783Z,979.78
2018-01-01T13:35:56.173Z,979.87
2018-01-01T13:36:56.128Z,979.84
2018-01-01T13:38:50.502Z,979.80
2018-01-01T13:39:50.464Z,979.74
2018-01-01T13:41:43.836Z,979.66
2018-01-01T13:42:43.798Z,979.70
2018-01-01T13:44:37.357Z,979.78
2018-01-01T13:45:37.164Z,979.74
2018-01-01T13:47:30.749Z,979.70
2018-01-01T13:48:30.552Z,979.64
2018-01-01T13:50:24.189Z,979.63
2018-01-01T13:51:23.909Z,979.50
2018-01-01T13:53:19.821Z,979.62
2018-01-01T13:54:19.750Z,979.61
2018-01-01T13:56:13.121Z,979.57
2018-01-01T13:57:13.090Z,979.50
2018-01-01T13:59:06.452Z,979.61
2018-01-01T14:00:06.503Z,979.59
2018-01-01T14:01:59.794Z,979.61
2018-01-01T14:02:59.750Z,979.67
2018-01-01T14:04:55.701Z,979.69
2018-01-01T14:05:55.571Z,979.59
2018-01-01T14:07:48.966Z,979.61
2018-01-01T14:08:48.920Z,979.59
2018-01-01T14:10:44.788Z,979.62
2018-01-01T14:11:44.746Z,979.72
2018-01-01T14:13:38.133Z,979.54
2018-01-01T14:14:38.093Z,979.53
2018-01-01T14:16:31.475Z,979.50
2018-01-01T14:17:31.423Z,979.58
2018-01-01T14:19:27.316Z,979.58
2018-01-01T14:20:27.245Z,979.65
2018-01-01T14:22:21.634Z,979.55
2018-01-01T14:23:21.585Z,979.51